sensor_id;sensor_type;location;lat;lon;timestamp;P1;durP1;ratioP1;P2;durP2;ratioP2
7747;SDS011;3918;42.564;23.164;2023-02-28T00:01:06;6.28;;;4.95;;
7747;SDS011;3918;42.564;23.164;2023-02-28T00:03:33;8.55;;;4.00;;
7747;SDS011;3918;42.564;23.164;2023-02-28T00:06:02;5.13;;;3.38;;
7747;SDS011;3918;42.564;23.164;2023-02-28T00:08:29;7.07;;;3.40;;
7747;SDS011;3918;42.564;23.164;2023-02-28T00:10:56;6.03;;;3.50;;
7747;SDS011;3918;42.564;23.164;2023-02-28T00:13:22;6.50;;;3.60;;
7747;SDS011;3918;42.564;23.164;2023-02-28T00:15:58;8.88;;;4.15;;
7747;SDS011;3918;42.564;23.164;2023-02-28T00:18:25;15.55;;;4.18;;
7747;SDS011;3918;42.564;23.164;2023-02-28T00:20:52;12.38;;;4.03;;
7747;SDS011;3918;42.564;23.164;2023-02-28T00:23:20;6.82;;;3.45;;
7747;SDS011;3918;42.564;23.164;2023-02-28T00:25:47;5.85;;;3.40;;
7747;SDS011;3918;42.564;23.164;2023-02-28T00:28:14;11.07;;;3.63;;
7747;SDS011;3918;42.564;23.164;2023-02-28T00:30:41;17.95;;;4.28;;
7747;SDS011;3918;42.564;23.164;2023-02-28T00:33:08;11.27;;;4.05;;
7747;SDS011;3918;42.564;23.164;2023-02-28T00:35:35;9.98;;;3.80;;
7747;SDS011;3918;42.564;23.164;2023-02-28T00:38:02;13.38;;;3.78;;
7747;SDS011;3918;42.564;23.164;2023-02-28T00:40:30;6.60;;;3.70;;
7747;SDS011;3918;42.564;23.164;2023-02-28T00:42:57;7.80;;;3.90;;
7747;SDS011;3918;42.564;23.164;2023-02-28T00:45:23;10.55;;;4.10;;
7747;SDS011;3918;42.564;23.164;2023-02-28T00:47:51;6.88;;;4.50;;
7747;SDS011;3918;42.564;23.164;2023-02-28T00:50:18;5.95;;;4.03;;
7747;SDS011;3918;42.564;23.164;2023-02-28T00:52:48;5.78;;;4.70;;
7747;SDS011;3918;42.564;23.164;2023-02-28T00:55:15;10.05;;;5.10;;
7747;SDS011;3918;42.564;23.164;2023-02-28T00:57:43;7.20;;;6.03;;
7747;SDS011;3918;42.564;23.164;2023-02-28T01:00:10;6.60;;;4.97;;
7747;SDS011;3918;42.564;23.164;2023-02-28T01:02:38;5.63;;;5.13;;
7747;SDS011;3918;42.564;23.164;2023-02-28T01:05:05;6.65;;;6.07;;
7747;SDS011;3918;42.564;23.164;2023-02-28T01:07:32;9.32;;;7.90;;
7747;SDS011;3918;42.564;23.164;2023-02-28T01:09:59;10.27;;;8.30;;
7747;SDS011;3918;42.564;23.164;2023-02-28T01:12:25;11.77;;;8.15;;
7747;SDS011;3918;42.564;23.164;2023-02-28T01:14:53;8.52;;;7.30;;
7747;SDS011;3918;42.564;23.164;2023-02-28T01:17:20;10.70;;;8.32;;
7747;SDS011;3918;42.564;23.164;2023-02-28T01:19:47;8.35;;;7.53;;
7747;SDS011;3918;42.564;23.164;2023-02-28T01:22:13;8.70;;;7.55;;
7747;SDS011;3918;42.564;23.164;2023-02-28T01:24:40;8.77;;;7.65;;
7747;SDS011;3918;42.564;23.164;2023-02-28T01:27:07;10.00;;;8.30;;
7747;SDS011;3918;42.564;23.164;2023-02-28T01:29:34;9.65;;;8.75;;
7747;SDS011;3918;42.564;23.164;2023-02-28T01:32:02;8.02;;;7.40;;
7747;SDS011;3918;42.564;23.164;2023-02-28T01:34:29;9.52;;;8.57;;
7747;SDS011;3918;42.564;23.164;2023-02-28T01:36:55;8.85;;;8.05;;
7747;SDS011;3918;42.564;23.164;2023-02-28T01:39:23;14.18;;;8.95;;
7747;SDS011;3918;42.564;23.164;2023-02-28T01:41:50;11.38;;;8.38;;
7747;SDS011;3918;42.564;23.164;2023-02-28T01:47:25;11.07;;;7.38;;
7747;SDS011;3918;42.564;23.164;2023-02-28T01:49:55;8.73;;;8.00;;
7747;SDS011;3918;42.564;23.164;2023-02-28T01:52:23;12.30;;;7.20;;
7747;SDS011;3918;42.564;23.164;2023-02-28T01:54:51;17.98;;;7.35;;
7747;SDS011;3918;42.564;23.164;2023-02-28T01:57:21;40.67;;;8.43;;
7747;SDS011;3918;42.564;23.164;2023-02-28T01:59:53;71.75;;;9.52;;
7747;SDS011;3918;42.564;23.164;2023-02-28T02:02:26;87.25;;;9.15;;
7747;SDS011;3918;42.564;23.164;2023-02-28T02:04:55;115.18;;;12.15;;
7747;SDS011;3918;42.564;23.164;2023-02-28T02:07:26;14.05;;;8.75;;
7747;SDS011;3918;42.564;23.164;2023-02-28T02:10:02;23.98;;;9.77;;
7747;SDS011;3918;42.564;23.164;2023-02-28T02:12:34;39.15;;;9.52;;
7747;SDS011;3918;42.564;23.164;2023-02-28T02:15:11;14.32;;;10.15;;
7747;SDS011;3918;42.564;23.164;2023-02-28T02:17:45;14.00;;;10.30;;
7747;SDS011;3918;42.564;23.164;2023-02-28T02:20:27;9.75;;;8.70;;
7747;SDS011;3918;42.564;23.164;2023-02-28T02:23:26;9.40;;;8.60;;
7747;SDS011;3918;42.564;23.164;2023-02-28T02:26:12;12.05;;;8.75;;
7747;SDS011;3918;42.564;23.164;2023-02-28T02:29:00;13.57;;;9.57;;
7747;SDS011;3918;42.564;23.164;2023-02-28T02:32:07;25.90;;;8.02;;
7747;SDS011;3918;42.564;23.164;2023-02-28T02:35:00;34.72;;;7.45;;
7747;SDS011;3918;42.564;23.164;2023-02-28T02:37:38;78.53;;;8.90;;
7747;SDS011;3918;42.564;23.164;2023-02-28T02:40:10;316.20;;;13.60;;
7747;SDS011;3918;42.564;23.164;2023-02-28T02:42:41;296.40;;;15.27;;
7747;SDS011;3918;42.564;23.164;2023-02-28T02:45:15;292.05;;;12.60;;
7747;SDS011;3918;42.564;23.164;2023-02-28T02:47:47;235.55;;;9.77;;
7747;SDS011;3918;42.564;23.164;2023-02-28T02:50:17;129.55;;;7.22;;
7747;SDS011;3918;42.564;23.164;2023-02-28T02:52:50;116.75;;;6.97;;
7747;SDS011;3918;42.564;23.164;2023-02-28T02:55:21;35.63;;;5.57;;
7747;SDS011;3918;42.564;23.164;2023-02-28T02:57:50;44.70;;;6.22;;
7747;SDS011;3918;42.564;23.164;2023-02-28T03:00:22;11.32;;;6.50;;
7747;SDS011;3918;42.564;23.164;2023-02-28T03:02:52;6.90;;;6.25;;
7747;SDS011;3918;42.564;23.164;2023-02-28T03:05:25;6.75;;;6.15;;
7747;SDS011;3918;42.564;23.164;2023-02-28T03:07:54;8.10;;;6.20;;
7747;SDS011;3918;42.564;23.164;2023-02-28T03:10:32;6.88;;;6.18;;
7747;SDS011;3918;42.564;23.164;2023-02-28T03:13:14;12.25;;;7.95;;
7747;SDS011;3918;42.564;23.164;2023-02-28T03:16:03;12.73;;;7.97;;
7747;SDS011;3918;42.564;23.164;2023-02-28T03:18:43;6.72;;;6.07;;
7747;SDS011;3918;42.564;23.164;2023-02-28T03:21:22;18.15;;;6.95;;
7747;SDS011;3918;42.564;23.164;2023-02-28T03:23:59;12.23;;;7.93;;
7747;SDS011;3918;42.564;23.164;2023-02-28T03:26:33;12.02;;;5.95;;
7747;SDS011;3918;42.564;23.164;2023-02-28T03:29:05;12.00;;;7.40;;
7747;SDS011;3918;42.564;23.164;2023-02-28T03:31:43;14.50;;;6.75;;
7747;SDS011;3918;42.564;23.164;2023-02-28T03:34:16;18.48;;;7.00;;
7747;SDS011;3918;42.564;23.164;2023-02-28T03:36:48;10.50;;;6.85;;
7747;SDS011;3918;42.564;23.164;2023-02-28T03:39:20;7.00;;;6.35;;
7747;SDS011;3918;42.564;23.164;2023-02-28T03:41:51;12.00;;;7.00;;
7747;SDS011;3918;42.564;23.164;2023-02-28T03:44:21;15.02;;;8.63;;
7747;SDS011;3918;42.564;23.164;2023-02-28T03:46:52;9.20;;;8.13;;
7747;SDS011;3918;42.564;23.164;2023-02-28T03:49:25;8.68;;;7.88;;
7747;SDS011;3918;42.564;23.164;2023-02-28T03:51:58;9.10;;;8.30;;
7747;SDS011;3918;42.564;23.164;2023-02-28T03:54:29;8.80;;;8.05;;
7747;SDS011;3918;42.564;23.164;2023-02-28T03:56:59;10.68;;;9.63;;
7747;SDS011;3918;42.564;23.164;2023-02-28T03:59:32;14.20;;;9.38;;
7747;SDS011;3918;42.564;23.164;2023-02-28T04:02:03;15.75;;;8.50;;
7747;SDS011;3918;42.564;23.164;2023-02-28T04:04:30;20.38;;;10.45;;
7747;SDS011;3918;42.564;23.164;2023-02-28T04:07:03;21.92;;;12.45;;
7747;SDS011;3918;42.564;23.164;2023-02-28T04:09:30;24.77;;;12.77;;
7747;SDS011;3918;42.564;23.164;2023-02-28T04:11:58;20.40;;;12.02;;
7747;SDS011;3918;42.564;23.164;2023-02-28T04:14:24;33.58;;;10.90;;
7747;SDS011;3918;42.564;23.164;2023-02-28T04:16:51;16.88;;;10.10;;
7747;SDS011;3918;42.564;23.164;2023-02-28T04:19:18;20.83;;;10.00;;
7747;SDS011;3918;42.564;23.164;2023-02-28T04:21:46;24.17;;;9.70;;
7747;SDS011;3918;42.564;23.164;2023-02-28T04:24:16;31.20;;;10.93;;
7747;SDS011;3918;42.564;23.164;2023-02-28T04:26:46;26.50;;;10.20;;
7747;SDS011;3918;42.564;23.164;2023-02-28T04:29:14;19.95;;;10.10;;
7747;SDS011;3918;42.564;23.164;2023-02-28T04:31:45;21.42;;;8.60;;
7747;SDS011;3918;42.564;23.164;2023-02-28T04:34:11;23.80;;;10.10;;
7747;SDS011;3918;42.564;23.164;2023-02-28T04:36:38;22.83;;;8.98;;
7747;SDS011;3918;42.564;23.164;2023-02-28T04:39:05;12.82;;;8.45;;
7747;SDS011;3918;42.564;23.164;2023-02-28T04:41:33;18.30;;;8.88;;
7747;SDS011;3918;42.564;23.164;2023-02-28T04:44:00;15.07;;;8.57;;
7747;SDS011;3918;42.564;23.164;2023-02-28T04:46:27;19.13;;;8.63;;
7747;SDS011;3918;42.564;23.164;2023-02-28T04:48:53;24.85;;;10.55;;
7747;SDS011;3918;42.564;23.164;2023-02-28T04:51:20;23.15;;;9.75;;
7747;SDS011;3918;42.564;23.164;2023-02-28T04:53:47;22.52;;;10.30;;
7747;SDS011;3918;42.564;23.164;2023-02-28T04:56:15;21.73;;;9.68;;
7747;SDS011;3918;42.564;23.164;2023-02-28T04:58:44;29.25;;;10.15;;
7747;SDS011;3918;42.564;23.164;2023-02-28T05:01:21;21.88;;;10.38;;
7747;SDS011;3918;42.564;23.164;2023-02-28T05:03:50;118.32;;;12.77;;
7747;SDS011;3918;42.564;23.164;2023-02-28T05:06:18;278.98;;;15.70;;
7747;SDS011;3918;42.564;23.164;2023-02-28T05:08:48;493.55;;;27.73;;
7747;SDS011;3918;42.564;23.164;2023-02-28T05:11:16;739.47;;;36.50;;
7747;SDS011;3918;42.564;23.164;2023-02-28T05:13:46;262.85;;;15.75;;
7747;SDS011;3918;42.564;23.164;2023-02-28T05:16:14;928.85;;;37.10;;
7747;SDS011;3918;42.564;23.164;2023-02-28T05:18:41;696.38;;;28.55;;
7747;SDS011;3918;42.564;23.164;2023-02-28T05:21:17;541.65;;;23.38;;
7747;SDS011;3918;42.564;23.164;2023-02-28T05:23:50;461.77;;;19.33;;
7747;SDS011;3918;42.564;23.164;2023-02-28T05:26:17;472.02;;;19.90;;
7747;SDS011;3918;42.564;23.164;2023-02-28T05:28:46;272.13;;;16.25;;
7747;SDS011;3918;42.564;23.164;2023-02-28T05:31:13;425.23;;;19.23;;
7747;SDS011;3918;42.564;23.164;2023-02-28T05:33:40;342.58;;;18.65;;
7747;SDS011;3918;42.564;23.164;2023-02-28T05:36:07;586.05;;;25.55;;
7747;SDS011;3918;42.564;23.164;2023-02-28T05:38:34;602.60;;;23.02;;
7747;SDS011;3918;42.564;23.164;2023-02-28T05:41:04;552.75;;;23.00;;
7747;SDS011;3918;42.564;23.164;2023-02-28T05:43:32;488.88;;;22.05;;
7747;SDS011;3918;42.564;23.164;2023-02-28T05:46:01;520.85;;;20.83;;
7747;SDS011;3918;42.564;23.164;2023-02-28T05:48:29;367.25;;;18.27;;
7747;SDS011;3918;42.564;23.164;2023-02-28T05:50:56;565.08;;;22.33;;
7747;SDS011;3918;42.564;23.164;2023-02-28T05:53:23;469.23;;;20.70;;
7747;SDS011;3918;42.564;23.164;2023-02-28T05:55:51;317.58;;;16.98;;
7747;SDS011;3918;42.564;23.164;2023-02-28T05:58:18;534.28;;;26.45;;
7747;SDS011;3918;42.564;23.164;2023-02-28T06:00:44;501.27;;;23.15;;
7747;SDS011;3918;42.564;23.164;2023-02-28T06:03:13;597.28;;;24.25;;
7747;SDS011;3918;42.564;23.164;2023-02-28T06:05:40;510.48;;;22.83;;
7747;SDS011;3918;42.564;23.164;2023-02-28T06:08:06;372.75;;;17.73;;
7747;SDS011;3918;42.564;23.164;2023-02-28T06:10:33;480.50;;;21.38;;
7747;SDS011;3918;42.564;23.164;2023-02-28T06:13:00;492.98;;;20.02;;
7747;SDS011;3918;42.564;23.164;2023-02-28T06:15:28;461.45;;;20.77;;
7747;SDS011;3918;42.564;23.164;2023-02-28T06:17:55;603.10;;;24.88;;
7747;SDS011;3918;42.564;23.164;2023-02-28T06:20:24;122.68;;;12.65;;
7747;SDS011;3918;42.564;23.164;2023-02-28T06:22:54;135.50;;;9.45;;
7747;SDS011;3918;42.564;23.164;2023-02-28T06:25:21;308.58;;;17.70;;
7747;SDS011;3918;42.564;23.164;2023-02-28T06:27:48;420.67;;;16.73;;
7747;SDS011;3918;42.564;23.164;2023-02-28T06:30:15;446.50;;;18.65;;
7747;SDS011;3918;42.564;23.164;2023-02-28T06:32:42;420.88;;;17.67;;
7747;SDS011;3918;42.564;23.164;2023-02-28T06:35:09;393.60;;;17.08;;
7747;SDS011;3918;42.564;23.164;2023-02-28T06:37:37;441.67;;;19.58;;
7747;SDS011;3918;42.564;23.164;2023-02-28T06:40:04;315.50;;;16.58;;
7747;SDS011;3918;42.564;23.164;2023-02-28T06:42:33;269.27;;;12.93;;
7747;SDS011;3918;42.564;23.164;2023-02-28T06:45:00;138.70;;;11.70;;
7747;SDS011;3918;42.564;23.164;2023-02-28T06:47:34;217.68;;;12.90;;
7747;SDS011;3918;42.564;23.164;2023-02-28T06:50:01;165.10;;;9.52;;
7747;SDS011;3918;42.564;23.164;2023-02-28T06:52:28;74.88;;;8.38;;
7747;SDS011;3918;42.564;23.164;2023-02-28T06:54:56;295.60;;;14.63;;
7747;SDS011;3918;42.564;23.164;2023-02-28T06:57:27;320.38;;;14.35;;
7747;SDS011;3918;42.564;23.164;2023-02-28T06:59:56;386.13;;;14.35;;
7747;SDS011;3918;42.564;23.164;2023-02-28T07:02:23;252.15;;;13.05;;
7747;SDS011;3918;42.564;23.164;2023-02-28T07:04:50;325.40;;;15.10;;
7747;SDS011;3918;42.564;23.164;2023-02-28T07:07:16;424.23;;;17.67;;
7747;SDS011;3918;42.564;23.164;2023-02-28T07:09:43;423.42;;;15.90;;
7747;SDS011;3918;42.564;23.164;2023-02-28T07:12:11;448.35;;;18.00;;
7747;SDS011;3918;42.564;23.164;2023-02-28T07:14:38;271.60;;;13.38;;
7747;SDS011;3918;42.564;23.164;2023-02-28T07:17:06;306.33;;;14.23;;
7747;SDS011;3918;42.564;23.164;2023-02-28T07:19:33;285.27;;;12.10;;
7747;SDS011;3918;42.564;23.164;2023-02-28T07:22:00;312.58;;;13.80;;
7747;SDS011;3918;42.564;23.164;2023-02-28T07:24:28;387.75;;;15.27;;
7747;SDS011;3918;42.564;23.164;2023-02-28T07:26:55;551.03;;;24.40;;
7747;SDS011;3918;42.564;23.164;2023-02-28T07:29:23;323.35;;;15.45;;
7747;SDS011;3918;42.564;23.164;2023-02-28T07:31:50;416.20;;;19.70;;
7747;SDS011;3918;42.564;23.164;2023-02-28T07:34:18;536.70;;;20.42;;
7747;SDS011;3918;42.564;23.164;2023-02-28T07:36:45;643.53;;;23.95;;
7747;SDS011;3918;42.564;23.164;2023-02-28T07:39:11;684.13;;;26.35;;
7747;SDS011;3918;42.564;23.164;2023-02-28T07:41:38;170.27;;;11.38;;
7747;SDS011;3918;42.564;23.164;2023-02-28T07:44:08;221.75;;;12.48;;
7747;SDS011;3918;42.564;23.164;2023-02-28T07:46:36;741.97;;;29.23;;
7747;SDS011;3918;42.564;23.164;2023-02-28T07:49:04;646.17;;;27.92;;
7747;SDS011;3918;42.564;23.164;2023-02-28T07:51:31;159.52;;;9.43;;
7747;SDS011;3918;42.564;23.164;2023-02-28T07:53:58;331.48;;;16.83;;
7747;SDS011;3918;42.564;23.164;2023-02-28T07:56:25;576.20;;;29.23;;
7747;SDS011;3918;42.564;23.164;2023-02-28T07:58:52;370.80;;;21.10;;
7747;SDS011;3918;42.564;23.164;2023-02-28T08:01:19;561.55;;;23.17;;
7747;SDS011;3918;42.564;23.164;2023-02-28T08:03:48;605.20;;;24.35;;
7747;SDS011;3918;42.564;23.164;2023-02-28T08:06:16;372.60;;;18.98;;
7747;SDS011;3918;42.564;23.164;2023-02-28T08:08:44;542.78;;;21.85;;
7747;SDS011;3918;42.564;23.164;2023-02-28T08:11:11;477.98;;;20.67;;
7747;SDS011;3918;42.564;23.164;2023-02-28T08:13:38;40.35;;;5.32;;
7747;SDS011;3918;42.564;23.164;2023-02-28T08:16:04;668.75;;;27.60;;
7747;SDS011;3918;42.564;23.164;2023-02-28T08:18:32;352.55;;;16.65;;
7747;SDS011;3918;42.564;23.164;2023-02-28T08:21:06;295.05;;;15.63;;
7747;SDS011;3918;42.564;23.164;2023-02-28T08:23:33;282.58;;;16.92;;
7747;SDS011;3918;42.564;23.164;2023-02-28T08:26:00;525.17;;;22.23;;
7747;SDS011;3918;42.564;23.164;2023-02-28T08:28:27;216.52;;;16.20;;
7747;SDS011;3918;42.564;23.164;2023-02-28T08:30:54;374.45;;;20.27;;
7747;SDS011;3918;42.564;23.164;2023-02-28T08:33:20;866.88;;;38.38;;
7747;SDS011;3918;42.564;23.164;2023-02-28T08:35:47;965.55;;;45.25;;
7747;SDS011;3918;42.564;23.164;2023-02-28T08:38:16;231.50;;;13.20;;
7747;SDS011;3918;42.564;23.164;2023-02-28T08:40:42;413.52;;;23.35;;
7747;SDS011;3918;42.564;23.164;2023-02-28T08:43:09;519.35;;;28.52;;
7747;SDS011;3918;42.564;23.164;2023-02-28T08:45:36;284.63;;;18.60;;
7747;SDS011;3918;42.564;23.164;2023-02-28T08:48:03;126.68;;;10.82;;
7747;SDS011;3918;42.564;23.164;2023-02-28T08:50:30;424.45;;;24.95;;
7747;SDS011;3918;42.564;23.164;2023-02-28T08:52:56;574.45;;;31.75;;
7747;SDS011;3918;42.564;23.164;2023-02-28T08:55:24;374.02;;;24.98;;
7747;SDS011;3918;42.564;23.164;2023-02-28T08:57:51;589.90;;;32.22;;
7747;SDS011;3918;42.564;23.164;2023-02-28T09:00:20;26.80;;;9.80;;
7747;SDS011;3918;42.564;23.164;2023-02-28T09:02:47;32.15;;;11.50;;
7747;SDS011;3918;42.564;23.164;2023-02-28T09:05:14;510.80;;;24.83;;
7747;SDS011;3918;42.564;23.164;2023-02-28T09:07:41;205.38;;;18.08;;
7747;SDS011;3918;42.564;23.164;2023-02-28T09:10:08;119.30;;;17.17;;
7747;SDS011;3918;42.564;23.164;2023-02-28T09:12:37;86.25;;;12.13;;
7747;SDS011;3918;42.564;23.164;2023-02-28T09:15:04;163.93;;;15.98;;
7747;SDS011;3918;42.564;23.164;2023-02-28T09:17:32;125.57;;;15.32;;
7747;SDS011;3918;42.564;23.164;2023-02-28T09:19:59;44.40;;;14.82;;
7747;SDS011;3918;42.564;23.164;2023-02-28T09:22:25;83.97;;;14.63;;
7747;SDS011;3918;42.564;23.164;2023-02-28T09:24:52;128.00;;;15.27;;
7747;SDS011;3918;42.564;23.164;2023-02-28T09:27:19;41.05;;;9.68;;
7747;SDS011;3918;42.564;23.164;2023-02-28T09:29:47;88.63;;;11.93;;
7747;SDS011;3918;42.564;23.164;2023-02-28T09:32:14;60.95;;;13.43;;
7747;SDS011;3918;42.564;23.164;2023-02-28T09:34:42;128.02;;;16.85;;
7747;SDS011;3918;42.564;23.164;2023-02-28T09:37:09;66.13;;;13.60;;
7747;SDS011;3918;42.564;23.164;2023-02-28T09:39:36;52.85;;;15.45;;
7747;SDS011;3918;42.564;23.164;2023-02-28T09:42:02;82.70;;;13.60;;
7747;SDS011;3918;42.564;23.164;2023-02-28T09:44:32;28.73;;;11.85;;
7747;SDS011;3918;42.564;23.164;2023-02-28T09:47:07;60.92;;;15.40;;
7747;SDS011;3918;42.564;23.164;2023-02-28T09:49:40;47.45;;;13.40;;
7747;SDS011;3918;42.564;23.164;2023-02-28T09:52:09;360.83;;;21.00;;
7747;SDS011;3918;42.564;23.164;2023-02-28T09:54:39;82.63;;;17.88;;
7747;SDS011;3918;42.564;23.164;2023-02-28T09:57:07;49.70;;;13.63;;
7747;SDS011;3918;42.564;23.164;2023-02-28T09:59:43;111.30;;;16.02;;
7747;SDS011;3918;42.564;23.164;2023-02-28T10:02:38;75.13;;;17.35;;
7747;SDS011;3918;42.564;23.164;2023-02-28T10:05:13;39.38;;;15.90;;
7747;SDS011;3918;42.564;23.164;2023-02-28T10:07:47;37.15;;;14.68;;
7747;SDS011;3918;42.564;23.164;2023-02-28T10:10:24;35.35;;;14.35;;
7747;SDS011;3918;42.564;23.164;2023-02-28T10:12:57;70.50;;;16.63;;
7747;SDS011;3918;42.564;23.164;2023-02-28T10:15:27;64.32;;;18.63;;
7747;SDS011;3918;42.564;23.164;2023-02-28T10:18:00;228.02;;;21.40;;
7747;SDS011;3918;42.564;23.164;2023-02-28T10:20:30;99.47;;;18.20;;
7747;SDS011;3918;42.564;23.164;2023-02-28T10:23:02;30.52;;;14.20;;
7747;SDS011;3918;42.564;23.164;2023-02-28T10:25:36;36.88;;;14.48;;
7747;SDS011;3918;42.564;23.164;2023-02-28T10:28:08;31.23;;;13.93;;
7747;SDS011;3918;42.564;23.164;2023-02-28T10:30:38;36.15;;;15.40;;
7747;SDS011;3918;42.564;23.164;2023-02-28T10:33:09;33.70;;;15.32;;
7747;SDS011;3918;42.564;23.164;2023-02-28T10:35:45;32.47;;;15.23;;
7747;SDS011;3918;42.564;23.164;2023-02-28T10:38:14;45.63;;;15.95;;
7747;SDS011;3918;42.564;23.164;2023-02-28T10:40:44;29.00;;;16.83;;
7747;SDS011;3918;42.564;23.164;2023-02-28T10:43:18;42.58;;;17.30;;
7747;SDS011;3918;42.564;23.164;2023-02-28T10:45:57;30.80;;;15.43;;
7747;SDS011;3918;42.564;23.164;2023-02-28T10:48:33;31.95;;;16.00;;
7747;SDS011;3918;42.564;23.164;2023-02-28T10:51:04;31.30;;;15.23;;
7747;SDS011;3918;42.564;23.164;2023-02-28T10:53:32;38.85;;;17.05;;
7747;SDS011;3918;42.564;23.164;2023-02-28T10:56:02;49.10;;;21.70;;
7747;SDS011;3918;42.564;23.164;2023-02-28T10:58:34;47.92;;;19.25;;
7747;SDS011;3918;42.564;23.164;2023-02-28T11:01:13;48.25;;;18.40;;
7747;SDS011;3918;42.564;23.164;2023-02-28T11:03:43;36.00;;;18.05;;
7747;SDS011;3918;42.564;23.164;2023-02-28T11:06:13;38.63;;;18.58;;
7747;SDS011;3918;42.564;23.164;2023-02-28T11:08:44;42.53;;;18.63;;
7747;SDS011;3918;42.564;23.164;2023-02-28T11:11:14;40.35;;;17.73;;
7747;SDS011;3918;42.564;23.164;2023-02-28T11:13:42;42.38;;;18.80;;
7747;SDS011;3918;42.564;23.164;2023-02-28T11:16:12;40.65;;;20.20;;
7747;SDS011;3918;42.564;23.164;2023-02-28T11:18:41;47.22;;;22.33;;
7747;SDS011;3918;42.564;23.164;2023-02-28T11:21:19;44.55;;;19.95;;
7747;SDS011;3918;42.564;23.164;2023-02-28T11:23:51;46.63;;;22.98;;
7747;SDS011;3918;42.564;23.164;2023-02-28T11:26:38;40.67;;;20.45;;
7747;SDS011;3918;42.564;23.164;2023-02-28T11:29:14;38.72;;;18.50;;
7747;SDS011;3918;42.564;23.164;2023-02-28T11:31:57;46.15;;;19.48;;
7747;SDS011;3918;42.564;23.164;2023-02-28T11:34:29;39.85;;;19.13;;
7747;SDS011;3918;42.564;23.164;2023-02-28T11:36:57;39.95;;;19.10;;
7747;SDS011;3918;42.564;23.164;2023-02-28T11:39:26;42.80;;;20.98;;
7747;SDS011;3918;42.564;23.164;2023-02-28T11:42:06;44.35;;;19.50;;
7747;SDS011;3918;42.564;23.164;2023-02-28T11:44:45;44.45;;;22.13;;
7747;SDS011;3918;42.564;23.164;2023-02-28T11:47:24;42.00;;;20.70;;
7747;SDS011;3918;42.564;23.164;2023-02-28T11:50:12;46.70;;;19.55;;
7747;SDS011;3918;42.564;23.164;2023-02-28T11:52:57;38.42;;;19.95;;
7747;SDS011;3918;42.564;23.164;2023-02-28T11:55:29;50.25;;;20.98;;
7747;SDS011;3918;42.564;23.164;2023-02-28T11:58:14;42.35;;;19.95;;
7747;SDS011;3918;42.564;23.164;2023-02-28T12:00:57;44.47;;;20.38;;
7747;SDS011;3918;42.564;23.164;2023-02-28T12:03:36;48.53;;;23.10;;
7747;SDS011;3918;42.564;23.164;2023-02-28T12:06:16;47.25;;;20.15;;
7747;SDS011;3918;42.564;23.164;2023-02-28T12:08:49;45.65;;;20.00;;
7747;SDS011;3918;42.564;23.164;2023-02-28T12:11:31;45.90;;;18.60;;
7747;SDS011;3918;42.564;23.164;2023-02-28T12:14:12;44.42;;;19.42;;
7747;SDS011;3918;42.564;23.164;2023-02-28T12:16:54;53.55;;;24.38;;
7747;SDS011;3918;42.564;23.164;2023-02-28T12:19:29;41.85;;;18.77;;
7747;SDS011;3918;42.564;23.164;2023-02-28T12:27:53;38.97;;;16.15;;
7747;SDS011;3918;42.564;23.164;2023-02-28T12:30:21;42.92;;;18.30;;
7747;SDS011;3918;42.564;23.164;2023-02-28T12:32:51;40.03;;;16.73;;
7747;SDS011;3918;42.564;23.164;2023-02-28T12:35:22;34.17;;;14.30;;
7747;SDS011;3918;42.564;23.164;2023-02-28T12:37:55;32.67;;;13.27;;
7747;SDS011;3918;42.564;23.164;2023-02-28T12:40:28;33.22;;;13.68;;
7747;SDS011;3918;42.564;23.164;2023-02-28T12:43:07;36.70;;;12.52;;
7747;SDS011;3918;42.564;23.164;2023-02-28T12:45:39;17.35;;;9.57;;
7747;SDS011;3918;42.564;23.164;2023-02-28T12:48:09;22.83;;;10.57;;
7747;SDS011;3918;42.564;23.164;2023-02-28T12:50:40;24.75;;;10.40;;
7747;SDS011;3918;42.564;23.164;2023-02-28T12:53:11;27.80;;;9.68;;
7747;SDS011;3918;42.564;23.164;2023-02-28T12:55:46;31.63;;;10.35;;
7747;SDS011;3918;42.564;23.164;2023-02-28T12:58:20;24.25;;;9.60;;
7747;SDS011;3918;42.564;23.164;2023-02-28T13:04:05;23.80;;;9.20;;
7747;SDS011;3918;42.564;23.164;2023-02-28T13:06:59;29.95;;;9.48;;
7747;SDS011;3918;42.564;23.164;2023-02-28T13:09:40;20.55;;;9.10;;
7747;SDS011;3918;42.564;23.164;2023-02-28T13:12:12;32.13;;;9.55;;
7747;SDS011;3918;42.564;23.164;2023-02-28T13:14:41;22.60;;;8.77;;
7747;SDS011;3918;42.564;23.164;2023-02-28T13:17:11;29.02;;;9.80;;
7747;SDS011;3918;42.564;23.164;2023-02-28T13:19:45;26.17;;;9.75;;
7747;SDS011;3918;42.564;23.164;2023-02-28T13:22:35;29.92;;;10.18;;
7747;SDS011;3918;42.564;23.164;2023-02-28T13:25:15;24.05;;;10.52;;
7747;SDS011;3918;42.564;23.164;2023-02-28T13:31:18;26.15;;;10.32;;
7747;SDS011;3918;42.564;23.164;2023-02-28T13:34:05;26.17;;;9.90;;
7747;SDS011;3918;42.564;23.164;2023-02-28T13:36:38;21.58;;;9.65;;
7747;SDS011;3918;42.564;23.164;2023-02-28T13:47:52;32.95;;;10.85;;
7747;SDS011;3918;42.564;23.164;2023-02-28T13:50:22;25.45;;;10.10;;
7747;SDS011;3918;42.564;23.164;2023-02-28T13:52:57;24.73;;;10.23;;
7747;SDS011;3918;42.564;23.164;2023-02-28T13:55:51;27.95;;;10.20;;
7747;SDS011;3918;42.564;23.164;2023-02-28T13:58:28;22.30;;;9.85;;
7747;SDS011;3918;42.564;23.164;2023-02-28T14:01:11;26.38;;;9.60;;
7747;SDS011;3918;42.564;23.164;2023-02-28T14:06:46;30.13;;;9.75;;
7747;SDS011;3918;42.564;23.164;2023-02-28T14:09:17;22.90;;;10.23;;
7747;SDS011;3918;42.564;23.164;2023-02-28T14:11:49;26.00;;;9.95;;
7747;SDS011;3918;42.564;23.164;2023-02-28T14:17:24;26.85;;;10.23;;
7747;SDS011;3918;42.564;23.164;2023-02-28T14:19:52;29.10;;;9.60;;
7747;SDS011;3918;42.564;23.164;2023-02-28T14:22:25;29.55;;;9.88;;
7747;SDS011;3918;42.564;23.164;2023-02-28T14:25:14;28.92;;;10.95;;
7747;SDS011;3918;42.564;23.164;2023-02-28T14:27:49;23.10;;;10.07;;
7747;SDS011;3918;42.564;23.164;2023-02-28T14:30:42;31.90;;;10.70;;
7747;SDS011;3918;42.564;23.164;2023-02-28T14:33:23;37.35;;;10.57;;
7747;SDS011;3918;42.564;23.164;2023-02-28T14:35:57;25.77;;;10.75;;
7747;SDS011;3918;42.564;23.164;2023-02-28T14:38:31;26.13;;;10.63;;
7747;SDS011;3918;42.564;23.164;2023-02-28T14:41:03;26.27;;;10.90;;
7747;SDS011;3918;42.564;23.164;2023-02-28T14:43:46;27.35;;;10.95;;
7747;SDS011;3918;42.564;23.164;2023-02-28T14:46:16;27.92;;;10.50;;
7747;SDS011;3918;42.564;23.164;2023-02-28T14:48:45;26.42;;;11.88;;
7747;SDS011;3918;42.564;23.164;2023-02-28T14:51:13;23.88;;;10.55;;
7747;SDS011;3918;42.564;23.164;2023-02-28T14:53:47;23.02;;;10.85;;
7747;SDS011;3918;42.564;23.164;2023-02-28T14:56:23;29.20;;;10.82;;
7747;SDS011;3918;42.564;23.164;2023-02-28T14:58:53;23.20;;;10.52;;
7747;SDS011;3918;42.564;23.164;2023-02-28T15:01:23;15.52;;;8.73;;
7747;SDS011;3918;42.564;23.164;2023-02-28T15:03:57;25.08;;;9.80;;
7747;SDS011;3918;42.564;23.164;2023-02-28T15:06:26;18.98;;;9.35;;
7747;SDS011;3918;42.564;23.164;2023-02-28T15:09:09;23.48;;;10.10;;
7747;SDS011;3918;42.564;23.164;2023-02-28T15:11:40;25.15;;;10.52;;
7747;SDS011;3918;42.564;23.164;2023-02-28T15:14:12;25.05;;;9.35;;
7747;SDS011;3918;42.564;23.164;2023-02-28T15:16:44;26.15;;;10.10;;
7747;SDS011;3918;42.564;23.164;2023-02-28T15:19:16;24.23;;;9.80;;
7747;SDS011;3918;42.564;23.164;2023-02-28T15:21:48;21.42;;;9.55;;
7747;SDS011;3918;42.564;23.164;2023-02-28T15:24:20;28.33;;;10.18;;
7747;SDS011;3918;42.564;23.164;2023-02-28T15:26:58;22.58;;;10.20;;
7747;SDS011;3918;42.564;23.164;2023-02-28T15:29:27;21.60;;;10.52;;